createdAt,value
2022-11-29T00:00:13.393Z,98.60
2022-11-29T00:01:13.452Z,98.20
2022-11-29T00:02:13.435Z,98.20
2022-11-29T00:03:13.782Z,98.60
2022-11-29T00:04:13.836Z,99.20
2022-11-29T00:05:13.895Z,99.60
2022-11-29T00:06:12.842Z,99.60
2022-11-29T00:07:14.841Z,98.80
2022-11-29T00:08:13.878Z,99.10
2022-11-29T00:09:13.769Z,99.50
2022-11-29T00:10:13.910Z,99.20
2022-11-29T00:11:12.794Z,99.50
2022-11-29T00:12:13.749Z,99.90
2022-11-29T00:13:13.859Z,99.70
2022-11-29T00:14:13.856Z,99.30
2022-11-29T00:15:13.823Z,99.80
2022-11-29T00:16:13.790Z,100.00
2022-11-29T00:17:13.956Z,100.00
2022-11-29T00:18:13.288Z,100.00
2022-11-29T00:19:13.683Z,99.30
2022-11-29T00:20:15.072Z,98.80
2022-11-29T00:21:13.006Z,98.40
2022-11-29T00:22:13.278Z,98.40
2022-11-29T00:23:13.460Z,98.50
2022-11-29T00:24:13.705Z,98.40
2022-11-29T00:25:13.573Z,98.40
2022-11-29T00:26:13.457Z,98.40
2022-11-29T00:27:13.395Z,98.20
2022-11-29T00:28:13.384Z,98.30
2022-11-29T00:29:13.236Z,98.40
2022-11-29T00:30:13.624Z,98.40
2022-11-29T00:31:13.664Z,98.10
2022-11-29T00:32:14.235Z,99.20
2022-11-29T00:33:14.143Z,99.20
2022-11-29T00:34:13.169Z,98.60
2022-11-29T00:35:13.202Z,98.90
2022-11-29T00:36:13.153Z,99.00
2022-11-29T00:37:13.082Z,99.50
2022-11-29T00:38:13.418Z,99.00
2022-11-29T00:39:13.240Z,98.40
2022-11-29T00:40:13.112Z,98.40
2022-11-29T00:41:13.005Z,98.40
2022-11-29T00:42:12.946Z,98.40
2022-11-29T00:43:13.176Z,98.90
2022-11-29T00:44:18.338Z,98.60
2022-11-29T00:45:13.259Z,98.70
2022-11-29T00:46:13.240Z,98.70
2022-11-29T00:47:13.592Z,98.50
2022-11-29T00:48:13.494Z,97.90
2022-11-29T00:49:13.641Z,97.40
2022-11-29T00:50:13.584Z,97.70
2022-11-29T00:51:13.699Z,97.50
2022-11-29T00:52:13.842Z,97.60
2022-11-29T00:53:13.813Z,97.70
2022-11-29T00:54:13.830Z,97.90
2022-11-29T00:55:13.842Z,98.00
2022-11-29T00:56:13.926Z,97.80
2022-11-29T00:57:12.868Z,97.50
2022-11-29T00:58:13.823Z,98.20
2022-11-29T00:59:14.148Z,98.40
2022-11-29T01:00:13.090Z,99.10
2022-11-29T01:01:13.483Z,99.40
2022-11-29T01:02:13.822Z,100.00
2022-11-29T01:03:13.996Z,100.00
2022-11-29T01:04:13.037Z,99.90
2022-11-29T01:05:13.002Z,100.00
2022-11-29T01:06:12.926Z,99.90
2022-11-29T01:07:12.823Z,99.90
2022-11-29T01:08:13.852Z,100.00
2022-11-29T01:09:14.129Z,100.00
2022-11-29T01:10:18.038Z,98.90
2022-11-29T01:11:18.006Z,98.10
2022-11-29T01:12:13.032Z,97.60
2022-11-29T01:13:12.936Z,97.50
2022-11-29T01:14:12.910Z,98.00
2022-11-29T01:15:12.802Z,98.20
2022-11-29T01:16:13.989Z,97.60
2022-11-29T01:17:13.216Z,98.20
2022-11-29T01:18:13.104Z,99.20
2022-11-29T01:19:13.417Z,99.50
2022-11-29T01:20:13.478Z,99.50
2022-11-29T01:21:13.357Z,99.80
2022-11-29T01:22:13.543Z,99.80
2022-11-29T01:23:14.161Z,99.80
2022-11-29T01:24:13.295Z,98.20
2022-11-29T01:25:13.400Z,98.00
2022-11-29T01:26:13.303Z,97.50
2022-11-29T01:27:13.397Z,96.80
2022-11-29T01:28:13.381Z,96.80
2022-11-29T01:29:13.475Z,96.30
2022-11-29T01:30:13.600Z,95.70
2022-11-29T01:31:13.782Z,96.20
2022-11-29T01:32:16.164Z,95.20
2022-11-29T01:33:13.030Z,94.10
2022-11-29T01:34:13.153Z,93.90
2022-11-29T01:35:13.069Z,95.30
2022-11-29T01:36:12.960Z,96.50
2022-11-29T01:37:12.927Z,97.30
2022-11-29T01:38:13.188Z,98.80
2022-11-29T01:39:18.649Z,98.30
2022-11-29T01:40:13.538Z,97.70
2022-11-29T01:41:13.730Z,97.00
2022-11-29T01:42:18.768Z,96.90
2022-11-29T01:43:13.704Z,97.80
2022-11-29T01:44:13.638Z,97.80
2022-11-29T01:45:13.474Z,97.10
2022-11-29T01:46:13.852Z,96.90
2022-11-29T01:47:14.829Z,96.70
2022-11-29T01:48:15.151Z,97.40
2022-11-29T01:49:13.035Z,97.30
2022-11-29T01:50:13.059Z,97.70
2022-11-29T01:51:13.590Z,97.70
2022-11-29T01:52:18.540Z,97.70
2022-11-29T01:53:13.413Z,97.40
2022-11-29T01:54:13.275Z,97.10
2022-11-29T01:55:13.180Z,97.80
2022-11-29T01:56:13.193Z,97.90
2022-11-29T01:57:18.189Z,97.40
2022-11-29T01:58:13.349Z,97.70
2022-11-29T01:59:13.585Z,97.60
2022-11-29T02:00:13.688Z,99.50
2022-11-29T02:01:14.158Z,100.00
2022-11-29T02:02:13.192Z,99.50
2022-11-29T02:03:13.226Z,99.10
2022-11-29T02:04:13.200Z,98.90
2022-11-29T02:05:13.278Z,98.40
2022-11-29T02:06:13.486Z,98.60
2022-11-29T02:07:13.588Z,99.60
2022-11-29T02:08:13.570Z,99.50
2022-11-29T02:09:13.893Z,98.70
2022-11-29T02:10:12.860Z,98.20
2022-11-29T02:11:13.723Z,98.50
2022-11-29T02:12:13.620Z,98.70
2022-11-29T02:13:13.506Z,98.60
2022-11-29T02:14:13.548Z,98.30
2022-11-29T02:15:13.398Z,98.50
2022-11-29T02:16:13.354Z,98.70
2022-11-29T02:17:13.382Z,99.20
2022-11-29T02:18:13.347Z,99.10
2022-11-29T02:19:13.324Z,98.50
2022-11-29T02:20:13.192Z,98.40
2022-11-29T02:21:13.268Z,99.10
2022-11-29T02:22:13.266Z,99.30
2022-11-29T02:23:13.365Z,98.80
2022-11-29T02:24:13.610Z,98.70
2022-11-29T02:25:13.770Z,98.70
2022-11-29T02:26:13.872Z,98.30
2022-11-29T02:27:14.110Z,97.70
2022-11-29T02:28:13.443Z,97.40
2022-11-29T02:29:13.337Z,97.50
2022-11-29T02:30:13.348Z,97.40
2022-11-29T02:31:13.205Z,97.60
2022-11-29T02:32:13.418Z,97.40
2022-11-29T02:33:13.315Z,97.10
2022-11-29T02:34:13.671Z,96.80
2022-11-29T02:35:13.730Z,97.10
2022-11-29T02:36:13.719Z,97.50
2022-11-29T02:37:13.887Z,97.50
2022-11-29T02:38:13.017Z,97.40
2022-11-29T02:39:13.165Z,97.00
2022-11-29T02:40:13.408Z,97.30
2022-11-29T02:41:14.392Z,97.20
2022-11-29T02:42:13.343Z,96.70
2022-11-29T02:43:13.211Z,96.60
2022-11-29T02:44:13.012Z,96.20
2022-11-29T02:45:12.982Z,95.90
2022-11-29T02:46:13.162Z,95.60
2022-11-29T02:47:13.310Z,95.20
2022-11-29T02:48:13.240Z,95.20
2022-11-29T02:49:13.074Z,95.40
2022-11-29T02:50:12.974Z,95.80
2022-11-29T02:51:12.959Z,95.90
2022-11-29T02:52:12.818Z,96.20
2022-11-29T02:53:13.748Z,95.70
2022-11-29T02:54:13.716Z,95.30
2022-11-29T02:55:19.049Z,95.60
2022-11-29T02:56:13.270Z,95.70
2022-11-29T02:57:13.477Z,96.10
2022-11-29T02:58:13.763Z,96.10
2022-11-29T02:59:13.676Z,96.20
2022-11-29T03:00:13.656Z,96.20
2022-11-29T03:01:13.644Z,95.90
2022-11-29T03:02:13.695Z,95.80
2022-11-29T03:03:13.713Z,96.20
2022-11-29T03:04:13.620Z,96.80
2022-11-29T03:05:13.524Z,96.80
2022-11-29T03:06:13.402Z,96.20
2022-11-29T03:07:13.382Z,95.80
2022-11-29T03:08:13.305Z,95.60
2022-11-29T03:09:13.447Z,96.20
2022-11-29T03:10:13.425Z,96.70
2022-11-29T03:11:14.425Z,96.20
2022-11-29T03:12:13.358Z,95.50
2022-11-29T03:13:13.586Z,95.40
2022-11-29T03:14:13.858Z,95.90
2022-11-29T03:15:18.911Z,96.10
2022-11-29T03:16:12.851Z,96.10
2022-11-29T03:17:13.087Z,96.80
2022-11-29T03:18:13.291Z,96.30
2022-11-29T03:19:13.556Z,95.90
2022-11-29T03:20:13.588Z,96.30
2022-11-29T03:21:13.615Z,96.70
2022-11-29T03:22:13.543Z,96.70
2022-11-29T03:23:13.484Z,96.60
2022-11-29T03:24:13.368Z,96.70
2022-11-29T03:25:13.239Z,96.80
2022-11-29T03:26:13.399Z,96.20
2022-11-29T03:27:13.391Z,96.00
2022-11-29T03:28:13.379Z,95.80
2022-11-29T03:29:13.451Z,95.60
2022-11-29T03:30:13.606Z,96.50
2022-11-29T03:31:13.630Z,96.70
2022-11-29T03:32:13.990Z,97.10
2022-11-29T03:33:13.077Z,97.80
2022-11-29T03:34:13.221Z,98.50
2022-11-29T03:35:13.507Z,97.80
2022-11-29T03:36:13.381Z,97.60
2022-11-29T03:37:13.475Z,98.50
2022-11-29T03:38:13.398Z,99.20
2022-11-29T03:39:13.378Z,99.80
2022-11-29T03:40:13.319Z,100.00
2022-11-29T03:41:13.123Z,99.90
2022-11-29T03:42:13.046Z,99.90
2022-11-29T03:43:13.101Z,100.00
2022-11-29T03:44:13.022Z,100.00
2022-11-29T03:45:13.049Z,100.00
2022-11-29T03:46:13.160Z,100.00
2022-11-29T03:47:13.100Z,100.00
2022-11-29T03:48:13.181Z,100.00
2022-11-29T03:49:13.119Z,100.00
2022-11-29T03:50:13.161Z,100.00
2022-11-29T03:51:13.333Z,100.00
2022-11-29T03:52:13.332Z,100.00
2022-11-29T03:53:13.282Z,100.00
2022-11-29T03:54:13.228Z,100.00
2022-11-29T03:55:13.313Z,100.00
2022-11-29T03:56:13.128Z,100.00
2022-11-29T03:57:12.996Z,100.00
2022-11-29T03:58:13.067Z,100.00
2022-11-29T03:59:13.310Z,100.00
2022-11-29T04:00:13.154Z,100.00
2022-11-29T04:01:13.391Z,100.00
2022-11-29T04:02:13.371Z,100.00
2022-11-29T04:03:13.484Z,100.00
2022-11-29T04:04:13.443Z,100.00
2022-11-29T04:05:13.554Z,100.00
2022-11-29T04:06:13.631Z,100.00
2022-11-29T04:07:13.572Z,100.00
2022-11-29T04:08:13.636Z,100.00
2022-11-29T04:09:13.541Z,100.00
2022-11-29T04:10:13.567Z,100.00
2022-11-29T04:11:13.579Z,100.00
2022-11-29T04:12:13.936Z,100.00
2022-11-29T04:13:12.909Z,100.00
2022-11-29T04:14:13.107Z,100.00
2022-11-29T04:15:15.611Z,100.00
2022-11-29T04:16:13.865Z,100.00
2022-11-29T04:17:13.009Z,100.00
2022-11-29T04:18:13.053Z,100.00
2022-11-29T04:19:12.858Z,100.00
2022-11-29T04:20:13.872Z,100.00
2022-11-29T04:21:15.090Z,100.00
2022-11-29T04:22:12.983Z,100.00
2022-11-29T04:23:12.921Z,100.00
2022-11-29T04:24:12.762Z,100.00
2022-11-29T04:25:13.847Z,100.00
2022-11-29T04:26:13.893Z,100.00
2022-11-29T04:27:12.848Z,100.00
2022-11-29T04:28:12.961Z,100.00
2022-11-29T04:29:12.916Z,100.00
2022-11-29T04:30:12.989Z,100.00
2022-11-29T04:31:13.246Z,100.00
2022-11-29T04:32:13.139Z,100.00
2022-11-29T04:33:13.262Z,100.00
2022-11-29T04:34:13.094Z,100.00
2022-11-29T04:35:18.136Z,100.00
2022-11-29T04:36:13.152Z,100.00
2022-11-29T04:37:13.560Z,100.00
2022-11-29T04:38:13.539Z,100.00
2022-11-29T04:39:13.732Z,100.00
2022-11-29T04:40:13.644Z,100.00
2022-11-29T04:41:13.756Z,100.00
2022-11-29T04:42:13.776Z,100.00
2022-11-29T04:43:14.191Z,100.00
2022-11-29T04:44:13.170Z,100.00
2022-11-29T04:45:13.225Z,100.00
2022-11-29T04:46:13.494Z,100.00
2022-11-29T04:47:13.796Z,100.00
2022-11-29T04:48:13.576Z,100.00
2022-11-29T04:49:13.461Z,100.00
2022-11-29T04:50:13.340Z,100.00
2022-11-29T04:51:13.392Z,100.00
2022-11-29T04:52:13.674Z,100.00
2022-11-29T04:53:13.515Z,100.00
2022-11-29T04:54:13.363Z,100.00
2022-11-29T04:55:17.151Z,100.00
2022-11-29T04:56:13.086Z,100.00
2022-11-29T04:57:13.613Z,100.00
2022-11-29T04:58:13.670Z,100.00
2022-11-29T04:59:13.784Z,100.00
2022-11-29T05:00:13.903Z,100.00
2022-11-29T05:01:13.315Z,100.00
2022-11-29T05:02:13.492Z,100.00
2022-11-29T05:03:13.481Z,100.00
2022-11-29T05:04:13.351Z,100.00
2022-11-29T05:05:13.401Z,100.00
2022-11-29T05:06:13.297Z,100.00
2022-11-29T05:07:13.533Z,100.00
2022-11-29T05:08:13.492Z,100.00
2022-11-29T05:09:13.471Z,100.00
2022-11-29T05:10:13.451Z,100.00
2022-11-29T05:11:13.640Z,99.70
2022-11-29T05:12:13.987Z,98.80
2022-11-29T05:13:12.992Z,97.70
2022-11-29T05:14:13.435Z,97.80
2022-11-29T05:15:13.702Z,98.30
2022-11-29T05:16:13.797Z,98.00
2022-11-29T05:17:13.781Z,98.90
2022-11-29T05:18:13.797Z,99.40
2022-11-29T05:19:13.783Z,100.00
2022-11-29T05:20:14.221Z,100.00
2022-11-29T05:21:13.482Z,100.00
2022-11-29T05:22:13.356Z,100.00
2022-11-29T05:23:13.397Z,100.00
2022-11-29T05:24:13.229Z,100.00
2022-11-29T05:25:13.391Z,100.00
2022-11-29T05:26:13.211Z,100.00
2022-11-29T05:27:12.995Z,100.00
2022-11-29T05:28:13.008Z,100.00
2022-11-29T05:29:13.064Z,100.00
2022-11-29T05:30:12.973Z,100.00
2022-11-29T05:31:12.882Z,99.90
2022-11-29T05:32:12.882Z,99.70
2022-11-29T05:33:13.043Z,99.30
2022-11-29T05:34:12.904Z,99.30
2022-11-29T05:35:12.817Z,99.40
2022-11-29T05:36:13.723Z,99.60
2022-11-29T05:37:13.653Z,99.30
2022-11-29T05:38:13.555Z,99.40
2022-11-29T05:39:13.399Z,99.20
2022-11-29T05:40:13.585Z,99.10
2022-11-29T05:41:13.871Z,98.90
2022-11-29T05:42:13.805Z,98.60
2022-11-29T05:43:14.115Z,98.60
2022-11-29T05:44:13.126Z,98.70
2022-11-29T05:45:13.046Z,98.70
2022-11-29T05:46:12.994Z,99.00
2022-11-29T05:47:12.986Z,99.00
2022-11-29T05:48:12.991Z,98.80
2022-11-29T05:49:13.210Z,99.00
2022-11-29T05:50:13.120Z,98.80
2022-11-29T05:51:13.141Z,98.70
2022-11-29T05:52:13.234Z,98.50
2022-11-29T05:53:13.199Z,98.60
2022-11-29T05:54:13.392Z,98.30
2022-11-29T05:55:13.374Z,97.70
2022-11-29T05:56:13.546Z,97.50
2022-11-29T05:57:13.552Z,98.30
2022-11-29T05:58:13.506Z,98.90
2022-11-29T05:59:13.734Z,98.80
2022-11-29T06:00:13.572Z,99.00
2022-11-29T06:01:13.897Z,99.10
2022-11-29T06:02:18.352Z,99.30
2022-11-29T06:03:13.410Z,99.30
2022-11-29T06:04:15.129Z,99.40
2022-11-29T06:05:13.416Z,99.10
2022-11-29T06:06:14.023Z,98.40
2022-11-29T06:07:13.411Z,98.50
2022-11-29T06:08:39.982Z,98.50
2022-11-29T06:09:12.913Z,98.40
2022-11-29T06:10:12.958Z,98.20
2022-11-29T06:11:45.569Z,97.80
2022-11-29T06:12:15.839Z,97.60
2022-11-29T06:13:13.708Z,97.10
2022-11-29T06:14:28.939Z,97.90
2022-11-29T06:15:17.905Z,98.20
2022-11-29T06:16:12.958Z,98.00
2022-11-29T06:17:12.940Z,97.40
2022-11-29T06:18:12.803Z,97.10
2022-11-29T06:19:13.707Z,96.90
2022-11-29T06:20:13.510Z,97.20
2022-11-29T06:21:13.475Z,97.20
2022-11-29T06:22:14.100Z,97.00
2022-11-29T06:23:13.022Z,96.60
2022-11-29T06:24:13.119Z,96.60
2022-11-29T06:25:12.998Z,96.80
2022-11-29T06:26:12.820Z,96.60
2022-11-29T06:27:13.790Z,97.20
2022-11-29T06:28:13.829Z,97.30
2022-11-29T06:29:13.666Z,97.30
2022-11-29T06:30:13.849Z,96.90
2022-11-29T06:31:14.135Z,97.00
2022-11-29T06:32:13.018Z,97.50
2022-11-29T06:33:12.955Z,97.40
2022-11-29T06:34:12.983Z,96.90
2022-11-29T06:35:14.320Z,97.40
2022-11-29T06:36:13.291Z,97.80
2022-11-29T06:37:13.243Z,97.80
2022-11-29T06:38:13.308Z,97.50
2022-11-29T06:39:13.279Z,97.50
2022-11-29T06:40:13.303Z,97.70
2022-11-29T06:41:13.276Z,98.10
2022-11-29T06:42:13.234Z,97.70
2022-11-29T06:43:13.238Z,96.50
2022-11-29T06:44:13.387Z,95.70
2022-11-29T06:45:13.558Z,94.70
2022-11-29T06:46:13.412Z,94.70
2022-11-29T06:47:13.898Z,95.10
2022-11-29T06:48:13.271Z,94.80
2022-11-29T06:49:13.364Z,94.60
2022-11-29T06:50:14.933Z,93.90
2022-11-29T06:51:18.218Z,93.30
2022-11-29T06:52:13.223Z,93.30
2022-11-29T06:53:14.783Z,93.10
2022-11-29T06:54:19.063Z,93.20
2022-11-29T06:55:18.145Z,93.30
2022-11-29T06:56:13.566Z,94.20
2022-11-29T06:57:23.460Z,95.50
2022-11-29T06:58:13.493Z,95.20
2022-11-29T06:59:13.469Z,94.00
2022-11-29T07:00:13.501Z,93.20
2022-11-29T07:01:13.693Z,92.40
2022-11-29T07:02:13.778Z,92.30
2022-11-29T07:03:14.496Z,92.40
2022-11-29T07:04:13.514Z,92.00
2022-11-29T07:05:13.561Z,91.80
2022-11-29T07:06:13.762Z,91.20
2022-11-29T07:07:13.768Z,91.30
2022-11-29T07:08:13.848Z,90.90
2022-11-29T07:09:13.821Z,90.60
2022-11-29T07:10:18.838Z,90.20
2022-11-29T07:11:13.806Z,90.30
2022-11-29T07:12:13.911Z,89.30
2022-11-29T07:13:13.273Z,88.70
2022-11-29T07:14:13.202Z,88.80
2022-11-29T07:15:13.073Z,88.40
2022-11-29T07:16:13.529Z,88.40
2022-11-29T07:17:13.600Z,88.10
2022-11-29T07:18:13.570Z,88.30
2022-11-29T07:19:13.647Z,88.90
2022-11-29T07:20:13.727Z,89.30
2022-11-29T07:21:13.665Z,89.10
2022-11-29T07:22:13.737Z,89.40
2022-11-29T07:23:13.923Z,90.00
2022-11-29T07:24:12.953Z,90.50
2022-11-29T07:25:13.282Z,91.90
2022-11-29T07:26:13.408Z,91.80
2022-11-29T07:27:13.809Z,91.60
2022-11-29T07:29:40.108Z,92.60
2022-11-29T07:31:41.138Z,91.80
2022-11-29T07:32:13.111Z,91.80
2022-11-29T07:33:13.475Z,92.30
2022-11-29T07:34:13.503Z,92.40
2022-11-29T07:35:13.437Z,92.20
2022-11-29T07:36:13.389Z,93.00
2022-11-29T07:37:13.261Z,93.10
2022-11-29T07:38:13.164Z,92.50
2022-11-29T07:39:13.363Z,92.50
2022-11-29T07:40:13.311Z,92.10
2022-11-29T07:41:13.399Z,91.60
2022-11-29T07:42:13.644Z,91.60
2022-11-29T07:43:13.622Z,92.10
2022-11-29T07:44:13.449Z,93.50
2022-11-29T07:45:13.416Z,94.00
2022-11-29T07:46:13.742Z,94.00
2022-11-29T07:47:14.002Z,94.00
2022-11-29T07:48:13.137Z,93.90
2022-11-29T07:49:13.140Z,93.50
2022-11-29T07:50:13.120Z,93.60
2022-11-29T07:51:13.064Z,93.90
2022-11-29T07:52:13.075Z,94.20
2022-11-29T07:53:12.994Z,93.90
2022-11-29T07:54:12.942Z,93.60
2022-11-29T07:55:18.328Z,93.60
2022-11-29T07:56:14.250Z,93.70
2022-11-29T07:57:13.258Z,93.60
2022-11-29T07:58:13.310Z,93.80
2022-11-29T07:59:13.457Z,94.00
2022-11-29T08:00:13.476Z,93.70
2022-11-29T08:01:13.474Z,93.00
2022-11-29T08:02:13.695Z,92.90
2022-11-29T08:03:13.928Z,93.10
2022-11-29T08:04:12.983Z,92.60
2022-11-29T08:05:13.186Z,92.40
2022-11-29T08:06:13.115Z,92.00
2022-11-29T08:07:13.067Z,91.80
2022-11-29T08:08:13.028Z,92.20
2022-11-29T08:09:12.891Z,92.60
2022-11-29T08:10:13.040Z,92.30
2022-11-29T08:11:12.992Z,92.60
2022-11-29T08:12:12.961Z,92.90
2022-11-29T08:13:13.210Z,92.80
2022-11-29T08:14:13.162Z,92.90
2022-11-29T08:15:13.322Z,92.80
2022-11-29T08:16:13.498Z,92.70
2022-11-29T08:17:13.766Z,92.70
2022-11-29T08:18:13.689Z,92.90
2022-11-29T08:19:18.723Z,92.50
2022-11-29T08:20:13.893Z,92.50
2022-11-29T08:21:12.802Z,92.50
2022-11-29T08:22:18.759Z,92.40
2022-11-29T08:23:13.736Z,92.30
2022-11-29T08:24:13.658Z,91.90
2022-11-29T08:25:13.866Z,91.50
2022-11-29T08:26:13.715Z,91.60
2022-11-29T08:27:13.953Z,91.30
2022-11-29T08:28:12.970Z,91.90
2022-11-29T08:29:12.938Z,92.20
2022-11-29T08:30:12.871Z,91.50
2022-11-29T08:31:12.741Z,91.40
2022-11-29T08:32:14.152Z,91.50
2022-11-29T08:33:13.198Z,90.90
2022-11-29T08:34:13.377Z,90.10
2022-11-29T08:35:13.311Z,90.00
2022-11-29T08:36:13.551Z,89.90
2022-11-29T08:37:13.432Z,90.10
2022-11-29T08:38:13.787Z,90.00
2022-11-29T08:39:14.033Z,90.40
2022-11-29T08:40:12.960Z,90.70
2022-11-29T08:41:12.963Z,91.00
2022-11-29T08:42:13.047Z,91.30
2022-11-29T08:43:12.986Z,91.10
2022-11-29T08:44:13.046Z,90.80
2022-11-29T08:45:13.224Z,90.30
2022-11-29T08:46:18.565Z,89.90
2022-11-29T08:47:13.138Z,88.90
2022-11-29T08:48:13.199Z,88.40
2022-11-29T08:49:13.130Z,88.40
2022-11-29T08:50:13.105Z,88.50
2022-11-29T08:51:12.983Z,89.40
2022-11-29T08:52:12.889Z,89.30
2022-11-29T08:53:12.888Z,89.30
2022-11-29T08:54:13.231Z,88.70
2022-11-29T08:55:13.266Z,88.60
2022-11-29T08:57:38.147Z,88.30
2022-11-29T08:57:41.047Z,87.80
2022-11-29T08:58:13.671Z,87.30
2022-11-29T08:59:13.799Z,88.20
2022-11-29T09:00:14.034Z,89.00
2022-11-29T09:01:13.308Z,89.20
2022-11-29T09:03:18.583Z,89.50
2022-11-29T09:04:13.658Z,89.10
2022-11-29T09:05:23.895Z,88.30
2022-11-29T09:06:13.315Z,88.20
2022-11-29T09:07:13.848Z,88.20
2022-11-29T09:08:14.160Z,88.90
2022-11-29T09:09:13.121Z,88.50
2022-11-29T09:10:13.009Z,87.90
2022-11-29T09:11:13.512Z,88.00
2022-11-29T09:12:13.601Z,87.40
2022-11-29T09:13:13.840Z,87.00
2022-11-29T09:14:13.705Z,86.20
2022-11-29T09:15:13.922Z,87.50
2022-11-29T09:16:12.987Z,88.20
2022-11-29T09:17:12.982Z,88.40
2022-11-29T09:18:13.076Z,88.30
2022-11-29T09:19:13.060Z,87.80
2022-11-29T09:20:13.073Z,87.60
2022-11-29T09:21:13.184Z,87.80
2022-11-29T09:22:13.289Z,88.00
2022-11-29T09:23:13.394Z,87.50
2022-11-29T09:24:13.409Z,87.30
2022-11-29T09:25:13.509Z,87.00
2022-11-29T09:26:13.476Z,87.00
2022-11-29T09:27:13.379Z,87.20
2022-11-29T09:28:13.214Z,87.40
2022-11-29T09:29:13.070Z,87.20
2022-11-29T09:30:13.242Z,87.20
2022-11-29T09:31:13.701Z,87.30
2022-11-29T09:32:13.787Z,87.00
2022-11-29T09:33:13.700Z,86.70
2022-11-29T09:34:14.002Z,86.60
2022-11-29T09:35:12.952Z,86.30
2022-11-29T09:36:13.319Z,87.10
2022-11-29T09:37:14.739Z,86.80
2022-11-29T09:38:13.873Z,86.20
2022-11-29T09:39:13.939Z,86.70
2022-11-29T09:40:12.845Z,86.10
2022-11-29T09:41:14.179Z,86.50
2022-11-29T09:42:13.077Z,87.30
2022-11-29T09:43:12.966Z,87.60
2022-11-29T09:44:18.011Z,87.10
2022-11-29T09:45:13.112Z,87.50
2022-11-29T09:46:13.216Z,87.20
2022-11-29T09:47:13.275Z,87.50
2022-11-29T09:48:13.276Z,87.60
2022-11-29T09:49:13.492Z,87.80
2022-11-29T09:50:13.701Z,88.40
2022-11-29T09:51:13.632Z,88.60
2022-11-29T09:52:13.760Z,88.50
2022-11-29T09:53:14.003Z,88.10
2022-11-29T09:54:13.413Z,88.10
2022-11-29T09:55:13.451Z,89.00
2022-11-29T09:56:13.383Z,89.30
2022-11-29T09:57:13.338Z,88.80
2022-11-29T09:58:13.242Z,88.70
2022-11-29T09:59:38.374Z,89.20
2022-11-29T10:00:14.691Z,89.70
2022-11-29T10:01:13.827Z,88.80
2022-11-29T10:02:18.317Z,88.30
2022-11-29T10:03:13.685Z,88.10
2022-11-29T10:04:13.988Z,88.20
2022-11-29T10:05:13.182Z,88.30
2022-11-29T10:06:23.402Z,87.90
2022-11-29T10:07:13.355Z,88.10
2022-11-29T10:08:13.531Z,88.20
2022-11-29T10:09:13.589Z,87.90
2022-11-29T10:10:23.651Z,88.70
2022-11-29T10:11:13.870Z,88.30
2022-11-29T10:12:14.191Z,88.90
2022-11-29T10:13:13.134Z,88.30
2022-11-29T10:14:18.195Z,87.70
2022-11-29T10:15:13.352Z,87.00
2022-11-29T10:16:13.587Z,87.00
2022-11-29T10:17:13.731Z,87.70
2022-11-29T10:18:13.657Z,88.50
2022-11-29T10:19:13.692Z,87.80
2022-11-29T10:20:13.772Z,87.10
2022-11-29T10:21:13.838Z,86.60
2022-11-29T10:22:13.892Z,86.60
2022-11-29T10:23:41.951Z,87.30
2022-11-29T10:24:13.637Z,87.60
2022-11-29T10:25:13.827Z,87.20
2022-11-29T10:26:13.958Z,87.50
2022-11-29T10:27:13.501Z,87.70
2022-11-29T10:28:13.867Z,87.90
2022-11-29T10:29:19.427Z,87.90
2022-11-29T10:30:13.645Z,88.40
2022-11-29T10:31:13.690Z,88.20
2022-11-29T10:32:14.185Z,88.20
2022-11-29T10:33:13.699Z,88.30
2022-11-29T10:34:13.771Z,88.50
2022-11-29T10:35:13.718Z,88.70
2022-11-29T10:36:13.594Z,88.90
2022-11-29T10:37:13.757Z,88.90
2022-11-29T10:38:31.637Z,88.50
2022-11-29T10:39:14.565Z,88.70
2022-11-29T10:40:19.426Z,88.60
2022-11-29T10:41:13.631Z,88.70
2022-11-29T10:42:13.764Z,88.10
2022-11-29T10:43:14.271Z,88.00
2022-11-29T10:44:13.418Z,88.80
2022-11-29T10:45:13.307Z,87.70
2022-11-29T10:46:13.535Z,88.30
2022-11-29T10:47:14.540Z,88.90
2022-11-29T10:48:13.864Z,89.50
2022-11-29T10:49:14.079Z,88.90
2022-11-29T10:50:12.919Z,88.50
2022-11-29T10:51:12.824Z,88.30
2022-11-29T10:52:13.874Z,88.60
2022-11-29T10:53:14.234Z,87.90
2022-11-29T10:54:13.336Z,88.10
2022-11-29T10:55:13.368Z,88.20
2022-11-29T10:56:13.358Z,88.90
2022-11-29T10:57:13.700Z,88.80
2022-11-29T10:58:13.674Z,88.80
2022-11-29T10:59:13.878Z,89.10
2022-11-29T11:00:13.704Z,89.20
2022-11-29T11:01:14.058Z,89.50
2022-11-29T11:02:13.509Z,89.90
2022-11-29T11:03:13.492Z,89.60
2022-11-29T11:04:13.539Z,89.20
2022-11-29T11:05:13.655Z,89.60
2022-11-29T11:06:13.662Z,89.50
2022-11-29T11:07:13.603Z,89.40
2022-11-29T11:08:13.590Z,90.00
2022-11-29T11:09:13.818Z,89.90
2022-11-29T11:10:13.683Z,89.40
2022-11-29T11:11:13.966Z,88.70
2022-11-29T11:12:13.265Z,89.90
2022-11-29T11:13:13.724Z,90.10
2022-11-29T11:14:13.718Z,89.90
2022-11-29T11:15:13.619Z,89.60
2022-11-29T11:16:13.766Z,89.00
2022-11-29T11:17:13.726Z,88.30
2022-11-29T11:18:13.950Z,88.40
2022-11-29T11:19:12.942Z,88.50
2022-11-29T11:20:12.905Z,87.90
2022-11-29T11:21:12.848Z,87.70
2022-11-29T11:22:13.798Z,88.00
2022-11-29T11:23:14.115Z,87.80
2022-11-29T11:24:13.281Z,87.50
2022-11-29T11:25:13.377Z,87.40
2022-11-29T11:26:13.684Z,87.50
2022-11-29T11:27:13.660Z,88.20
2022-11-29T11:28:13.622Z,88.70
2022-11-29T11:29:13.657Z,89.10
2022-11-29T11:30:13.712Z,89.60
2022-11-29T11:31:13.928Z,89.50
2022-11-29T11:32:18.864Z,88.60
2022-11-29T11:33:14.163Z,88.70
2022-11-29T11:34:13.226Z,88.30
2022-11-29T11:35:18.214Z,88.90
2022-11-29T11:36:13.451Z,89.70
2022-11-29T11:37:13.757Z,89.30
2022-11-29T11:38:13.835Z,88.70
2022-11-29T11:39:13.741Z,89.50
2022-11-29T11:40:13.940Z,89.20
2022-11-29T11:41:13.069Z,88.60
2022-11-29T11:42:12.993Z,88.60
2022-11-29T11:43:12.994Z,88.80
2022-11-29T11:44:15.387Z,89.50
2022-11-29T11:45:13.163Z,89.50
2022-11-29T11:46:17.710Z,89.10
2022-11-29T11:47:14.741Z,88.80
2022-11-29T11:48:13.765Z,88.90
2022-11-29T11:49:13.656Z,89.00
2022-11-29T11:50:13.742Z,90.00
2022-11-29T11:51:14.114Z,89.20
2022-11-29T11:52:13.026Z,89.30
2022-11-29T11:53:12.934Z,88.40
2022-11-29T11:54:13.237Z,87.50
2022-11-29T11:55:13.215Z,87.80
2022-11-29T11:56:13.262Z,87.30
2022-11-29T11:57:13.461Z,87.70
2022-11-29T11:58:13.526Z,87.30
2022-11-29T11:59:18.982Z,87.20
2022-11-29T12:00:13.512Z,86.50
2022-11-29T12:01:13.713Z,87.00
2022-11-29T12:02:18.897Z,87.60
2022-11-29T12:03:13.056Z,87.40
2022-11-29T12:04:13.493Z,86.10
2022-11-29T12:05:13.827Z,86.90
2022-11-29T12:06:13.802Z,86.70
2022-11-29T12:07:13.866Z,87.10
2022-11-29T12:08:19.032Z,86.80
2022-11-29T12:09:13.606Z,87.00
2022-11-29T12:10:13.524Z,87.30
2022-11-29T12:11:13.908Z,87.80
2022-11-29T12:12:12.927Z,88.20
2022-11-29T12:13:13.080Z,88.00
2022-11-29T12:14:12.998Z,87.90
2022-11-29T12:15:13.172Z,87.90
2022-11-29T12:16:13.108Z,88.40
2022-11-29T12:17:18.481Z,88.70
2022-11-29T12:18:12.875Z,88.80
2022-11-29T12:19:13.839Z,89.10
2022-11-29T12:20:14.027Z,89.90
2022-11-29T12:21:12.877Z,90.10
2022-11-29T12:22:13.877Z,89.30
2022-11-29T12:23:13.770Z,88.80
2022-11-29T12:24:14.126Z,88.40
2022-11-29T12:25:12.992Z,88.40
2022-11-29T12:26:19.192Z,88.20
2022-11-29T12:27:13.838Z,88.40
2022-11-29T12:28:17.160Z,89.30
2022-11-29T12:29:13.181Z,89.50
2022-11-29T12:30:13.280Z,89.00
2022-11-29T12:31:13.571Z,89.50
2022-11-29T12:32:13.674Z,89.50
2022-11-29T12:33:13.872Z,89.30
2022-11-29T12:34:14.210Z,89.80
2022-11-29T12:35:17.476Z,90.00
2022-11-29T12:36:12.905Z,90.20
2022-11-29T12:37:12.870Z,90.10
2022-11-29T12:38:13.745Z,90.20
2022-11-29T12:39:13.757Z,90.70
2022-11-29T12:40:13.737Z,91.10
2022-11-29T12:41:13.789Z,90.50
2022-11-29T12:42:13.716Z,89.90
2022-11-29T12:43:13.990Z,89.20
2022-11-29T12:44:13.381Z,88.70
2022-11-29T12:45:13.442Z,89.20
2022-11-29T12:46:13.476Z,88.70
2022-11-29T12:47:35.067Z,89.00
2022-11-29T12:48:13.268Z,88.90
2022-11-29T12:49:13.473Z,88.50
2022-11-29T12:50:16.062Z,89.50
2022-11-29T12:51:31.802Z,90.80
2022-11-29T12:52:14.256Z,92.00